Hauptseite
METAR-TAF:

METAR-TAF

Flughäfen :

Flughafen Tanger-Boukhalef

Tanger, Marokko

Breite: 35-44N, Länge: 005-54W, Höhe: 19 m

Beobachtung

Neuester Wetterbericht von vor 36 Minuten, um 14:00 UTC
Wind 16 kt aus Ost
Temperatur 20°C
Luftfeuchtigkeit 60%
Luftdruck 1019 hPa
Sichtweite 10 km oder mehr
keine Wolken unter 1500 m und keine Kumulonimbus oder Gewitterwolken

METAR: GMTT 201400Z 08016KT CAVOK 20/12 Q1019 NOSIG

Zeit: 15:36 (14:36 UTC)

Prognose

Neuester Wetterbericht von vor 3 Stunden und 36 Minuten, um 11:00 UTC
Gültige Prognose vom 20 um 12 UTC bis 21 um 18 UTC
Wind 21 kt aus Ost
Sichtweite 10 km oder mehr
Leicht bewölkt in der Höhe von 2600 ft
Aufgelockert bewölkt in der Höhe von 20000 ft
Zeitweise
vom 21 um 09 UTC bis 21 um 18 UTC
Wind 25 kt aus Ost, Böen bis zu 35 kt

TAF: GMTT 201100Z 2012/2118 08021KT 9999 FEW026 SCT200 TEMPO 2109/2118 09025G35KT

Wetterbeobachtungen und Prognosen von mehr als 4000 Flughäfen (METAR und TAF Bericht).

Die verfügbaren Stationen werden durch gelbe und rote Markierungen auf der Karte dargestellt.

Führen Sie die Maus auf sie, um den Namen der Station zu sehen.

Darauf klicken, um die Beobachtung von Wetterbeobachtungen und Prognosen zu sehen.

Um die Karte zu ändern : klicken Sie auf den grünen Tasten mit einem schwarzen Kreuz Zum Vergrößern, auf den grünen Button mit einem Gedankenstrich zu verkleinern, oder auf die grünen Pfeile für benachbarte Karten.


METAR-TAF: